createdAt,value
2019-01-29T00:01:38.389Z,93816.72
2019-01-29T00:04:11.507Z,93789.75
2019-01-29T00:06:43.037Z,93820.88
2019-01-29T00:09:15.900Z,93800.62
2019-01-29T00:11:47.566Z,93798.40
2019-01-29T00:14:19.228Z,93814.21
2019-01-29T00:16:50.801Z,93808.38
2019-01-29T00:19:22.343Z,93804.23
2019-01-29T00:21:53.884Z,93812.23
2019-01-29T00:24:25.293Z,93806.05
2019-01-29T00:26:56.922Z,93805.46
2019-01-29T00:29:28.538Z,93809.06
2019-01-29T00:32:00.142Z,93814.88
2019-01-29T00:34:31.794Z,93810.64
2019-01-29T00:37:04.359Z,93805.74
2019-01-29T00:39:36.089Z,93805.50
2019-01-29T00:42:07.647Z,93801.65
2019-01-29T00:44:40.291Z,93813.39
2019-01-29T00:47:11.760Z,93815.73
2019-01-29T00:49:43.244Z,93823.78
2019-01-29T00:52:14.927Z,93831.92
2019-01-29T00:54:48.686Z,93819.23
2019-01-29T00:57:20.285Z,93830.20
2019-01-29T00:59:52.485Z,93834.94
2019-01-29T01:02:24.117Z,93835.69
2019-01-29T01:04:55.690Z,93843.73
2019-01-29T01:07:27.239Z,93839.90
2019-01-29T01:09:59.021Z,93837.08
2019-01-29T01:12:30.603Z,93844.23
2019-01-29T01:15:03.887Z,93846.70
2019-01-29T01:17:36.553Z,93850.62
2019-01-29T01:20:10.389Z,93852.75
2019-01-29T01:22:50.883Z,93846.50
2019-01-29T01:25:19.709Z,93847.23
2019-01-29T01:27:51.236Z,93842.81
2019-01-29T01:30:22.982Z,93835.25
2019-01-29T01:32:54.689Z,93832.12
2019-01-29T01:35:26.414Z,93836.83
2019-01-29T01:37:58.019Z,93837.02
2019-01-29T01:40:29.837Z,93838.36
2019-01-29T01:43:01.655Z,93839.73
2019-01-29T01:45:33.287Z,93845.30
2019-01-29T01:48:04.814Z,93847.89
2019-01-29T01:50:36.435Z,93848.18
2019-01-29T01:53:08.083Z,93846.09
2019-01-29T01:55:39.656Z,93855.03
2019-01-29T01:58:11.232Z,93844.02
2019-01-29T02:00:42.924Z,93845.73
2019-01-29T02:03:14.756Z,93846.73
2019-01-29T02:05:46.285Z,93858.19
2019-01-29T02:08:17.979Z,93850.75
2019-01-29T02:10:49.534Z,93860.62
2019-01-29T02:13:22.567Z,93851.88
2019-01-29T02:15:54.102Z,93842.25
2019-01-29T02:18:25.613Z,93840.30
2019-01-29T02:20:57.268Z,93836.45
2019-01-29T02:23:28.624Z,93833.17
2019-01-29T02:26:00.326Z,93833.17
2019-01-29T02:28:31.847Z,93827.80
2019-01-29T02:31:04.411Z,93845.45
2019-01-29T02:33:35.917Z,93838.36
2019-01-29T02:36:07.457Z,93846.97
2019-01-29T02:38:38.971Z,93845.39
2019-01-29T02:41:10.462Z,93856.67
2019-01-29T02:43:44.527Z,93854.21
2019-01-29T02:46:16.257Z,93839.28
2019-01-29T02:48:47.849Z,93845.58
2019-01-29T02:51:20.783Z,93838.88
2019-01-29T02:53:52.369Z,93835.09
2019-01-29T02:56:23.956Z,93824.59
2019-01-29T02:58:55.602Z,93823.72
2019-01-29T03:01:27.241Z,93820.02
2019-01-29T03:04:01.337Z,93811.19
2019-01-29T03:06:33.122Z,93816.64
2019-01-29T03:09:09.169Z,93821.14
2019-01-29T03:11:40.453Z,93822.49
2019-01-29T03:14:13.425Z,93836.20
2019-01-29T03:16:45.009Z,93833.41
2019-01-29T03:19:18.161Z,93836.97
2019-01-29T03:21:49.839Z,93844.83
2019-01-29T03:24:21.523Z,93848.63
2019-01-29T03:26:53.244Z,93846.41
2019-01-29T03:29:24.865Z,93846.05
2019-01-29T03:31:56.411Z,93853.72
2019-01-29T03:34:29.542Z,93845.80
2019-01-29T03:37:04.273Z,93838.81
2019-01-29T03:39:35.430Z,93833.26
2019-01-29T03:42:07.105Z,93827.92
2019-01-29T03:44:40.792Z,93837.02
2019-01-29T03:47:12.456Z,93835.13
2019-01-29T03:49:43.978Z,93838.71
2019-01-29T03:52:15.787Z,93848.80
2019-01-29T03:54:47.290Z,93854.83
2019-01-29T03:57:19.029Z,93855.30
2019-01-29T03:59:50.661Z,93859.56
2019-01-29T04:02:22.216Z,93847.78
2019-01-29T04:04:53.911Z,93847.91
2019-01-29T04:07:25.745Z,93850.70
2019-01-29T04:09:57.357Z,93837.55
2019-01-29T04:12:29.039Z,93838.73
2019-01-29T04:15:00.575Z,93841.30
2019-01-29T04:17:32.220Z,93844.02
2019-01-29T04:20:04.680Z,93832.31
2019-01-29T04:22:36.365Z,93835.44
2019-01-29T04:25:08.355Z,93844.59
2019-01-29T04:27:39.962Z,93851.94
2019-01-29T04:30:14.535Z,93854.31
2019-01-29T04:32:46.099Z,93850.33
2019-01-29T04:35:19.941Z,93853.12
2019-01-29T04:37:51.624Z,93861.34
2019-01-29T04:40:23.248Z,93872.55
2019-01-29T04:42:54.735Z,93878.97
2019-01-29T04:45:26.399Z,93884.41
2019-01-29T04:47:59.241Z,93878.85
2019-01-29T04:50:30.660Z,93880.28
2019-01-29T04:53:02.295Z,93885.06
2019-01-29T04:55:33.802Z,93885.02
2019-01-29T04:58:06.846Z,93885.37
2019-01-29T05:00:38.466Z,93883.22
2019-01-29T05:03:11.145Z,93885.38
2019-01-29T05:05:42.714Z,93888.66
2019-01-29T05:08:15.635Z,93882.71
2019-01-29T05:10:47.273Z,93879.30
2019-01-29T05:13:18.982Z,93881.66
2019-01-29T05:15:50.447Z,93878.22
2019-01-29T05:18:22.250Z,93881.08
2019-01-29T05:20:53.804Z,93889.66
2019-01-29T05:23:25.379Z,93897.19
2019-01-29T05:25:56.823Z,93894.79
2019-01-29T05:28:28.534Z,93906.42
2019-01-29T05:31:00.212Z,93904.50
2019-01-29T05:33:31.864Z,93900.41
2019-01-29T05:36:03.327Z,93906.27
2019-01-29T05:38:34.978Z,93893.40
2019-01-29T05:41:06.441Z,93889.19
2019-01-29T05:43:38.035Z,93896.30
2019-01-29T05:46:09.767Z,93888.99
2019-01-29T05:48:41.206Z,93895.66
2019-01-29T05:51:12.711Z,93897.31
2019-01-29T05:53:44.322Z,93903.63
2019-01-29T05:56:16.035Z,93908.05
2019-01-29T05:58:48.765Z,93905.91
2019-01-29T06:01:20.308Z,93911.29
2019-01-29T06:03:51.942Z,93909.27
2019-01-29T06:06:23.559Z,93913.22
2019-01-29T06:08:56.377Z,93912.07
2019-01-29T06:11:28.002Z,93916.94
2019-01-29T06:13:59.554Z,93933.72
2019-01-29T06:16:33.347Z,93938.45
2019-01-29T06:19:05.061Z,93938.74
2019-01-29T06:21:36.744Z,93940.38
2019-01-29T06:24:08.554Z,93934.97
2019-01-29T06:26:40.146Z,93926.23
2019-01-29T06:29:12.836Z,93941.41
2019-01-29T06:31:44.368Z,93951.70
2019-01-29T06:34:16.061Z,93945.70
2019-01-29T06:36:47.623Z,93945.43
2019-01-29T06:39:23.213Z,93945.72
2019-01-29T06:41:54.952Z,93945.43
2019-01-29T06:44:26.534Z,93939.52
2019-01-29T06:46:57.955Z,93944.55
2019-01-29T06:49:29.660Z,93937.95
2019-01-29T06:52:02.207Z,93940.54
2019-01-29T06:54:34.445Z,93953.39
2019-01-29T06:57:06.428Z,93955.64
2019-01-29T06:59:37.963Z,93951.03
2019-01-29T07:02:09.573Z,93944.47
2019-01-29T07:04:41.150Z,93947.48
2019-01-29T07:07:15.331Z,93950.55
2019-01-29T07:09:47.052Z,93950.55
2019-01-29T07:12:18.699Z,93954.91
2019-01-29T07:14:50.208Z,93957.48
2019-01-29T07:17:33.955Z,93948.75
2019-01-29T07:20:08.578Z,93931.63
2019-01-29T07:22:41.854Z,93934.20
2019-01-29T07:25:13.787Z,93940.36
2019-01-29T07:27:45.300Z,93960.59
2019-01-29T07:30:17.103Z,93960.59
2019-01-29T07:32:51.070Z,93964.02
2019-01-29T07:35:22.691Z,93957.83
2019-01-29T07:37:54.312Z,93957.83
2019-01-29T07:40:26.120Z,93957.05
2019-01-29T07:42:57.525Z,93953.28
2019-01-29T07:45:31.847Z,93943.35
2019-01-29T07:48:03.350Z,93943.84
2019-01-29T07:50:34.973Z,93960.11
2019-01-29T07:53:06.675Z,93975.45
2019-01-29T07:55:38.196Z,93973.17
2019-01-29T07:58:09.711Z,93967.95
2019-01-29T08:00:42.282Z,93967.84
2019-01-29T08:03:14.090Z,93973.63
2019-01-29T08:05:45.597Z,93988.05
2019-01-29T08:08:16.818Z,93982.30
2019-01-29T08:10:47.965Z,93983.52
2019-01-29T08:13:19.154Z,93983.44
2019-01-29T08:15:50.363Z,93987.37
2019-01-29T08:18:21.678Z,93990.70
2019-01-29T08:20:53.025Z,93988.69
2019-01-29T08:23:26.310Z,93994.59
2019-01-29T08:25:57.672Z,93998.77
2019-01-29T08:28:29.991Z,93999.16
2019-01-29T08:31:01.142Z,93998.31
2019-01-29T08:33:32.469Z,94002.53
2019-01-29T08:36:03.865Z,94002.55
2019-01-29T08:38:35.046Z,94004.09
2019-01-29T08:41:06.355Z,94002.02
2019-01-29T08:43:37.513Z,94004.10
2019-01-29T08:46:09.019Z,94005.31
2019-01-29T08:48:40.435Z,94007.31
2019-01-29T08:51:11.654Z,94006.75
2019-01-29T08:53:42.938Z,94003.94
2019-01-29T08:56:14.556Z,94003.80
2019-01-29T08:58:45.846Z,94009.11
2019-01-29T09:01:17.336Z,94021.77
2019-01-29T09:03:48.440Z,94027.20
2019-01-29T09:06:19.828Z,94024.39
2019-01-29T09:08:51.194Z,94026.33
2019-01-29T09:11:22.483Z,94042.63
2019-01-29T09:13:53.781Z,94037.39
2019-01-29T09:16:24.896Z,94028.02
2019-01-29T09:18:56.313Z,94034.77
2019-01-29T09:21:27.686Z,94034.16
2019-01-29T09:23:58.781Z,94040.94
2019-01-29T09:26:30.014Z,94047.16
2019-01-29T09:29:01.049Z,94046.58
2019-01-29T09:31:32.475Z,94035.78
2019-01-29T09:34:03.535Z,94043.73
2019-01-29T09:36:37.122Z,94047.03
2019-01-29T09:39:11.639Z,94047.05
2019-01-29T09:41:42.923Z,94043.95
2019-01-29T09:44:14.257Z,94035.97
2019-01-29T09:46:45.425Z,94036.97
2019-01-29T09:49:16.731Z,94029.54
2019-01-29T09:51:48.055Z,94037.04
2019-01-29T09:54:19.366Z,94029.12
2019-01-29T09:56:50.669Z,94022.95
2019-01-29T09:59:21.839Z,94018.03
2019-01-29T10:01:53.113Z,94022.98
2019-01-29T10:04:24.466Z,94016.31
2019-01-29T10:06:55.876Z,94022.48
2019-01-29T10:09:27.089Z,94015.23
2019-01-29T10:11:58.124Z,94013.15
2019-01-29T10:14:31.527Z,94010.23
2019-01-29T10:17:02.783Z,94006.07
2019-01-29T10:19:34.074Z,94002.72
2019-01-29T10:22:05.592Z,93998.50
2019-01-29T10:24:39.051Z,93998.30
2019-01-29T10:27:10.562Z,93993.72
2019-01-29T10:29:41.854Z,93986.06
2019-01-29T10:32:13.196Z,93976.41
2019-01-29T10:34:44.414Z,93972.09
2019-01-29T10:37:15.617Z,93969.48
2019-01-29T10:39:46.910Z,93969.40
2019-01-29T10:42:18.444Z,93973.69
2019-01-29T10:44:49.735Z,93979.19
2019-01-29T10:47:22.384Z,93975.77
2019-01-29T10:49:56.457Z,93975.20
2019-01-29T10:52:27.853Z,93974.43
2019-01-29T10:54:59.108Z,93966.27
2019-01-29T10:57:31.595Z,93950.12
2019-01-29T11:00:02.991Z,93946.95
2019-01-29T11:02:34.643Z,93943.86
2019-01-29T11:05:07.031Z,93948.84
2019-01-29T11:07:40.981Z,93947.77
2019-01-29T11:10:13.127Z,93937.69
2019-01-29T11:12:44.425Z,93939.98
2019-01-29T11:15:25.071Z,93937.34
2019-01-29T11:17:56.369Z,93941.59
2019-01-29T11:20:27.796Z,93945.17
2019-01-29T11:22:59.066Z,93944.00
2019-01-29T11:25:30.935Z,93939.69
2019-01-29T11:28:02.216Z,93938.35
2019-01-29T11:30:35.728Z,93929.11
2019-01-29T11:33:07.702Z,93928.72
2019-01-29T11:35:40.570Z,93924.06
2019-01-29T11:38:11.949Z,93929.61
2019-01-29T11:40:43.606Z,93937.72
2019-01-29T11:43:15.010Z,93935.35
2019-01-29T11:45:51.951Z,93924.95
2019-01-29T11:48:25.004Z,93926.70
2019-01-29T11:50:56.162Z,93934.70
2019-01-29T11:53:27.345Z,93936.75
2019-01-29T11:56:04.252Z,93940.08
2019-01-29T11:58:32.020Z,93931.69
2019-01-29T12:01:07.941Z,93933.95
2019-01-29T12:03:39.315Z,93931.03
2019-01-29T12:06:10.572Z,93929.92
2019-01-29T12:08:42.030Z,93941.96
2019-01-29T12:11:13.210Z,93945.03
2019-01-29T12:13:44.447Z,93943.09
2019-01-29T12:16:19.543Z,93951.59
2019-01-29T12:18:48.873Z,93955.30
2019-01-29T12:21:20.278Z,93954.71
2019-01-29T12:23:51.611Z,93951.63
2019-01-29T12:26:22.983Z,93952.80
2019-01-29T12:28:54.330Z,93952.72
2019-01-29T12:31:26.620Z,93953.11
2019-01-29T12:33:57.932Z,93951.86
2019-01-29T12:36:28.968Z,93949.61
2019-01-29T12:39:00.154Z,93950.13
2019-01-29T12:41:31.210Z,93954.20
2019-01-29T12:44:02.530Z,93954.13
2019-01-29T12:46:33.797Z,93950.50
2019-01-29T12:49:05.464Z,93950.55
2019-01-29T12:51:50.015Z,93950.58
2019-01-29T12:54:21.404Z,93950.09
2019-01-29T12:56:52.571Z,93948.77
2019-01-29T12:59:23.823Z,93942.41
2019-01-29T13:01:55.228Z,93949.86
2019-01-29T13:04:26.402Z,93943.02
2019-01-29T13:06:57.549Z,93942.41
2019-01-29T13:09:28.814Z,93938.64
2019-01-29T13:12:00.053Z,93936.00
2019-01-29T13:14:32.303Z,93939.46
2019-01-29T13:17:03.575Z,93933.71
2019-01-29T13:19:36.429Z,93938.91
2019-01-29T13:22:08.877Z,93940.71
2019-01-29T13:24:41.367Z,93940.30
2019-01-29T13:27:12.635Z,93938.95
2019-01-29T13:29:43.914Z,93939.03
2019-01-29T13:32:14.969Z,93937.95
2019-01-29T13:34:46.217Z,93944.11
2019-01-29T13:37:17.410Z,93946.48
2019-01-29T13:39:48.731Z,93945.66
2019-01-29T13:42:20.030Z,93936.80
2019-01-29T13:44:51.304Z,93941.15
2019-01-29T13:47:22.616Z,93941.42
2019-01-29T13:49:53.952Z,93942.56
2019-01-29T13:52:25.226Z,93940.18
2019-01-29T13:54:56.580Z,93939.34
2019-01-29T13:57:27.605Z,93950.09
2019-01-29T13:59:58.965Z,93948.17
2019-01-29T14:02:30.151Z,93954.42
2019-01-29T14:05:01.391Z,93963.23
2019-01-29T14:07:32.575Z,93958.05
2019-01-29T14:10:03.886Z,93959.34
2019-01-29T14:12:35.166Z,93965.78
2019-01-29T14:15:07.679Z,93971.04
2019-01-29T14:17:39.126Z,93961.98
2019-01-29T14:20:13.879Z,93964.77
2019-01-29T14:22:45.116Z,93959.48
2019-01-29T14:25:16.439Z,93968.06
2019-01-29T14:27:47.756Z,93969.44
2019-01-29T14:30:20.091Z,93963.82
2019-01-29T14:32:51.512Z,93967.92
2019-01-29T14:35:23.101Z,93963.20
2019-01-29T14:38:40.725Z,93968.91
2019-01-29T14:41:12.073Z,93965.03
2019-01-29T14:43:46.270Z,93959.80
2019-01-29T14:46:19.428Z,93960.96
2019-01-29T14:48:50.471Z,93960.34
2019-01-29T14:51:23.473Z,93954.21
2019-01-29T14:53:54.750Z,93949.40
2019-01-29T14:56:26.141Z,93954.16
2019-01-29T14:58:57.417Z,93947.46
2019-01-29T15:01:29.153Z,93940.71
2019-01-29T15:04:00.343Z,93944.50
2019-01-29T15:06:32.497Z,93947.83
2019-01-29T15:09:05.685Z,93943.03
2019-01-29T15:11:36.941Z,93940.23
2019-01-29T15:14:08.354Z,93943.23
2019-01-29T15:16:58.561Z,93943.75
2019-01-29T15:19:31.128Z,93937.98
2019-01-29T15:22:02.390Z,93938.00
2019-01-29T15:24:33.684Z,93938.00
2019-01-29T15:27:05.998Z,93948.13
2019-01-29T15:29:37.331Z,93947.62
2019-01-29T15:32:08.564Z,93949.34
2019-01-29T15:34:39.965Z,93950.26
2019-01-29T15:37:11.285Z,93950.26
2019-01-29T15:39:42.625Z,93947.89
2019-01-29T15:42:14.014Z,93961.12
2019-01-29T15:44:45.359Z,93955.64
2019-01-29T15:47:16.553Z,93949.25
2019-01-29T15:49:47.823Z,93949.25
2019-01-29T15:52:20.162Z,93941.55
2019-01-29T15:54:51.285Z,93940.13
2019-01-29T15:57:22.513Z,93940.13
2019-01-29T15:59:53.700Z,93939.15
2019-01-29T16:02:24.848Z,93942.44
2019-01-29T16:04:56.186Z,93937.94
2019-01-29T16:07:27.497Z,93932.77
2019-01-29T16:09:58.696Z,93934.34
2019-01-29T16:12:30.799Z,93940.55
2019-01-29T16:15:03.545Z,93937.38
2019-01-29T16:17:34.855Z,93947.17
2019-01-29T16:20:07.184Z,93942.88
2019-01-29T16:22:38.654Z,93941.59
2019-01-29T16:25:11.235Z,93943.35
2019-01-29T16:27:42.650Z,93938.18
2019-01-29T16:30:23.227Z,93943.23
2019-01-29T16:32:54.592Z,93944.08
2019-01-29T16:35:28.441Z,93937.62
2019-01-29T16:38:00.131Z,93935.19
2019-01-29T16:40:31.830Z,93938.98
2019-01-29T16:43:03.111Z,93939.55
2019-01-29T16:45:34.499Z,93944.43
2019-01-29T16:48:07.377Z,93944.43
2019-01-29T16:50:38.673Z,93948.27
2019-01-29T16:53:10.351Z,93942.92
2019-01-29T16:55:41.574Z,93946.64
2019-01-29T16:58:12.876Z,93938.81
2019-01-29T17:00:44.566Z,93932.52
2019-01-29T17:03:15.921Z,93924.01
2019-01-29T17:05:47.249Z,93926.63
2019-01-29T17:08:18.767Z,93926.59
2019-01-29T17:10:50.047Z,93924.45
2019-01-29T17:13:23.887Z,93931.92
2019-01-29T17:15:56.898Z,93929.36
2019-01-29T17:18:28.187Z,93926.87
2019-01-29T17:20:59.583Z,93922.27
2019-01-29T17:23:30.986Z,93929.45
2019-01-29T17:26:02.207Z,93929.45
2019-01-29T17:28:33.561Z,93919.77
2019-01-29T17:31:06.368Z,93931.25
2019-01-29T17:33:37.711Z,93931.25
2019-01-29T17:36:08.824Z,93935.45
2019-01-29T17:38:44.727Z,93924.91
2019-01-29T17:41:13.095Z,93924.91
2019-01-29T17:43:44.289Z,93925.14
2019-01-29T17:46:15.720Z,93925.14
2019-01-29T17:48:46.997Z,93917.19
2019-01-29T17:51:19.743Z,93920.08
2019-01-29T17:53:50.973Z,93920.08
2019-01-29T17:56:22.400Z,93916.27
2019-01-29T17:58:53.759Z,93915.72
2019-01-29T18:01:24.930Z,93906.18
2019-01-29T18:03:56.088Z,93906.18
2019-01-29T18:06:27.444Z,93914.58
2019-01-29T18:08:58.774Z,93908.70
2019-01-29T18:11:30.243Z,93908.70
2019-01-29T18:14:01.414Z,93909.08
2019-01-29T18:16:33.687Z,93907.30
2019-01-29T18:19:05.357Z,93896.91
2019-01-29T18:21:36.804Z,93896.91
2019-01-29T18:24:08.181Z,93895.11
2019-01-29T18:26:39.617Z,93906.40
2019-01-29T18:29:10.887Z,93906.40
2019-01-29T18:31:42.311Z,93896.17
2019-01-29T18:34:13.416Z,93896.17
2019-01-29T18:36:44.727Z,93895.42
2019-01-29T18:39:16.052Z,93898.98
2019-01-29T18:41:49.041Z,93905.03
2019-01-29T18:44:20.194Z,93901.78
2019-01-29T18:46:51.513Z,93901.31
2019-01-29T18:49:22.533Z,93901.31
2019-01-29T18:51:53.863Z,93894.86
2019-01-29T18:54:25.068Z,93898.91
2019-01-29T18:56:56.251Z,93900.73
2019-01-29T18:59:27.373Z,93901.55
2019-01-29T19:01:58.505Z,93901.88
2019-01-29T19:04:29.866Z,93897.10
2019-01-29T19:07:01.024Z,93897.25
2019-01-29T19:09:32.289Z,93897.97
2019-01-29T19:12:03.523Z,93896.15
2019-01-29T19:14:34.749Z,93898.88
2019-01-29T19:17:06.331Z,93899.30
2019-01-29T19:19:37.606Z,93895.61
2019-01-29T19:22:09.968Z,93899.27
2019-01-29T19:24:41.346Z,93898.63
2019-01-29T19:27:12.554Z,93898.34
2019-01-29T19:29:44.781Z,93894.08
2019-01-29T19:32:18.086Z,93887.13
2019-01-29T19:34:49.526Z,93886.12
2019-01-29T19:37:20.770Z,93893.07
2019-01-29T19:39:52.170Z,93893.07
2019-01-29T19:42:27.614Z,93895.11
2019-01-29T19:44:56.552Z,93881.81
2019-01-29T19:47:27.577Z,93881.81
2019-01-29T19:49:58.867Z,93871.38
2019-01-29T19:52:34.698Z,93872.53
2019-01-29T19:55:07.523Z,93869.63
2019-01-29T19:57:38.928Z,93863.64
2019-01-29T20:00:15.058Z,93876.18
2019-01-29T20:02:47.192Z,93876.18
2019-01-29T20:05:18.754Z,93876.92
2019-01-29T20:07:50.038Z,93877.19
2019-01-29T20:10:21.733Z,93872.20
2019-01-29T20:12:54.221Z,93868.05
2019-01-29T20:17:30.180Z,93850.28
2019-01-29T20:19:59.786Z,93860.70
2019-01-29T20:22:29.557Z,93852.05
2019-01-29T20:24:59.279Z,93848.18
2019-01-29T20:27:29.038Z,93852.30
2019-01-29T20:29:58.650Z,93842.30
2019-01-29T20:32:28.480Z,93845.89
2019-01-29T20:34:58.130Z,93842.11
2019-01-29T20:37:27.626Z,93835.09
2019-01-29T20:39:57.225Z,93839.53
2019-01-29T20:42:26.951Z,93826.96
2019-01-29T20:44:56.524Z,93835.08
2019-01-29T20:47:26.342Z,93832.63
2019-01-29T20:49:56.128Z,93826.91
2019-01-29T20:52:25.890Z,93818.97
2019-01-29T20:54:55.498Z,93815.69
2019-01-29T20:57:25.244Z,93816.80
2019-01-29T20:59:54.755Z,93828.08
2019-01-29T21:02:24.468Z,93821.16
2019-01-29T21:04:54.083Z,93813.25
2019-01-29T21:07:23.901Z,93822.59
2019-01-29T21:09:53.465Z,93818.19
2019-01-29T21:12:23.119Z,93806.25
2019-01-29T21:14:52.785Z,93808.28
2019-01-29T21:17:22.453Z,93810.36
2019-01-29T21:19:52.081Z,93801.41
2019-01-29T21:22:21.723Z,93800.64
2019-01-29T21:24:51.373Z,93804.28
2019-01-29T21:27:21.214Z,93801.59
2019-01-29T21:29:50.909Z,93794.46
2019-01-29T21:32:20.393Z,93796.39
2019-01-29T21:34:51.814Z,93790.22
2019-01-29T21:37:21.487Z,93780.69
2019-01-29T21:39:52.246Z,93782.80
2019-01-29T21:42:21.875Z,93791.74
2019-01-29T21:44:51.503Z,93795.46
2019-01-29T21:47:21.172Z,93779.94
2019-01-29T21:49:50.794Z,93778.61
2019-01-29T21:52:20.466Z,93781.66
2019-01-29T21:54:50.192Z,93782.70
2019-01-29T21:57:19.849Z,93782.34
2019-01-29T21:59:49.587Z,93784.42
2019-01-29T22:02:19.386Z,93781.01
2019-01-29T22:04:49.078Z,93778.81
2019-01-29T22:07:19.623Z,93772.50
2019-01-29T22:09:50.634Z,93770.02
2019-01-29T22:12:20.427Z,93772.53
2019-01-29T22:14:49.951Z,93784.83
2019-01-29T22:17:19.578Z,93773.50
2019-01-29T22:19:49.309Z,93775.58
2019-01-29T22:22:18.969Z,93766.70
2019-01-29T22:24:48.756Z,93779.55
2019-01-29T22:27:18.489Z,93779.62
2019-01-29T22:29:48.111Z,93779.27
2019-01-29T22:32:17.694Z,93779.40
2019-01-29T22:34:47.501Z,93766.66
2019-01-29T22:37:17.243Z,93759.02
2019-01-29T22:39:47.086Z,93760.94
2019-01-29T22:42:16.801Z,93766.66
2019-01-29T22:44:48.276Z,93758.00
2019-01-29T22:47:17.927Z,93758.00
2019-01-29T22:49:47.523Z,93748.19
2019-01-29T22:52:17.184Z,93746.58
2019-01-29T22:54:46.784Z,93741.27
2019-01-29T22:57:16.437Z,93729.88
2019-01-29T22:59:46.066Z,93729.44
2019-01-29T23:02:15.865Z,93726.55
2019-01-29T23:04:47.299Z,93729.14
2019-01-29T23:07:37.052Z,93732.17
2019-01-29T23:10:12.245Z,93732.61
2019-01-29T23:12:42.005Z,93730.76
2019-01-29T23:15:13.655Z,93726.83
2019-01-29T23:17:43.523Z,93726.51
2019-01-29T23:20:14.119Z,93727.80
2019-01-29T23:22:43.584Z,93716.72
2019-01-29T23:25:13.588Z,93726.51
2019-01-29T23:27:43.511Z,93724.88
2019-01-29T23:30:16.373Z,93729.81
2019-01-29T23:32:46.069Z,93725.53
2019-01-29T23:35:16.258Z,93725.94
2019-01-29T23:37:45.821Z,93723.30
2019-01-29T23:40:15.865Z,93711.97
2019-01-29T23:42:45.818Z,93700.27
2019-01-29T23:45:16.025Z,93700.27
2019-01-29T23:47:45.637Z,93698.56
2019-01-29T23:50:15.601Z,93702.55
2019-01-29T23:52:45.218Z,93703.50
2019-01-29T23:55:15.021Z,93700.29
2019-01-29T23:57:44.796Z,93707.21
